Matucana, Peru
Current Conditions -  °F | °C
As of 7:00 PM on Thursday 27 Nov 2014 (Local Time) from SPIM Reporting Station
Clear Clear  
Wind Chill: 66°   Ceiling: Unl
Heat Index: 66°   Visibility: 6mi
Dew Point: 61°   Wind: 12mph
Humidity: 83%   Direction: 160°SSE
Pressure: 29.88"   Gusts: NA
Location:  11.85°S, 76.4°W
Report Text: SPIM 280000Z 16010KT CAVOK 19/16 Q1012 NOSIG RMK PP000
Loading
Personal Weather Stations






























Interactive Weather Map New forecast layout! Learn more

10-Day Weather Forecast

Advertisements
Track Severe Weather on mobile